sensor_id;sensor_type;location;lat;lon;timestamp;P1;durP1;ratioP1;P2;durP2;ratioP2
53644;SDS011;39547;45.554;12.068;2023-03-03T00:05:12;28.77;;;15.43;;
53644;SDS011;39547;45.554;12.068;2023-03-03T00:11:15;26.55;;;13.90;;
53644;SDS011;39547;45.554;12.068;2023-03-03T00:17:24;27.17;;;14.25;;
53644;SDS011;39547;45.554;12.068;2023-03-03T00:29:40;38.05;;;20.25;;
53644;SDS011;39547;45.554;12.068;2023-03-03T00:35:46;27.63;;;15.70;;
53644;SDS011;39547;45.554;12.068;2023-03-03T00:41:47;31.50;;;17.20;;
53644;SDS011;39547;45.554;12.068;2023-03-03T00:47:49;28.90;;;15.60;;
53644;SDS011;39547;45.554;12.068;2023-03-03T00:53:51;28.58;;;15.48;;
53644;SDS011;39547;45.554;12.068;2023-03-03T00:59:52;30.80;;;16.48;;
53644;SDS011;39547;45.554;12.068;2023-03-03T01:05:54;29.55;;;16.08;;
53644;SDS011;39547;45.554;12.068;2023-03-03T01:11:55;30.92;;;15.75;;
53644;SDS011;39547;45.554;12.068;2023-03-03T01:17:57;30.77;;;16.58;;
53644;SDS011;39547;45.554;12.068;2023-03-03T01:23:59;31.95;;;17.20;;
53644;SDS011;39547;45.554;12.068;2023-03-03T01:30:01;28.02;;;14.35;;
53644;SDS011;39547;45.554;12.068;2023-03-03T01:36:04;29.33;;;14.75;;
53644;SDS011;39547;45.554;12.068;2023-03-03T01:42:06;27.00;;;14.68;;
53644;SDS011;39547;45.554;12.068;2023-03-03T01:48:29;31.27;;;16.08;;
53644;SDS011;39547;45.554;12.068;2023-03-03T01:54:38;35.15;;;18.33;;
53644;SDS011;39547;45.554;12.068;2023-03-03T02:00:48;33.90;;;16.75;;
53644;SDS011;39547;45.554;12.068;2023-03-03T02:06:57;28.20;;;14.98;;
53644;SDS011;39547;45.554;12.068;2023-03-03T02:13:06;31.52;;;15.98;;
53644;SDS011;39547;45.554;12.068;2023-03-03T02:19:11;27.73;;;14.48;;
53644;SDS011;39547;45.554;12.068;2023-03-03T02:25:42;32.97;;;17.55;;
53644;SDS011;39547;45.554;12.068;2023-03-03T02:31:58;28.20;;;14.65;;
53644;SDS011;39547;45.554;12.068;2023-03-03T02:38:11;32.92;;;16.90;;
53644;SDS011;39547;45.554;12.068;2023-03-03T02:44:19;27.45;;;13.95;;
53644;SDS011;39547;45.554;12.068;2023-03-03T02:50:24;29.63;;;15.68;;
53644;SDS011;39547;45.554;12.068;2023-03-03T02:56:27;28.33;;;14.50;;
53644;SDS011;39547;45.554;12.068;2023-03-03T03:02:28;30.30;;;16.75;;
53644;SDS011;39547;45.554;12.068;2023-03-03T03:08:30;31.17;;;16.77;;
53644;SDS011;39547;45.554;12.068;2023-03-03T03:14:31;29.50;;;15.20;;
53644;SDS011;39547;45.554;12.068;2023-03-03T03:20:36;28.40;;;14.15;;
53644;SDS011;39547;45.554;12.068;2023-03-03T03:26:40;26.80;;;13.75;;
53644;SDS011;39547;45.554;12.068;2023-03-03T03:32:41;26.17;;;13.40;;
53644;SDS011;39547;45.554;12.068;2023-03-03T03:38:43;28.48;;;15.20;;
53644;SDS011;39547;45.554;12.068;2023-03-03T03:44:45;26.75;;;13.25;;
53644;SDS011;39547;45.554;12.068;2023-03-03T03:50:49;26.17;;;12.95;;
53644;SDS011;39547;45.554;12.068;2023-03-03T03:56:51;25.77;;;12.90;;
53644;SDS011;39547;45.554;12.068;2023-03-03T04:02:54;25.27;;;13.07;;
53644;SDS011;39547;45.554;12.068;2023-03-03T04:08:56;22.77;;;11.00;;
53644;SDS011;39547;45.554;12.068;2023-03-03T04:14:59;24.38;;;11.93;;
53644;SDS011;39547;45.554;12.068;2023-03-03T04:21:02;23.23;;;10.82;;
53644;SDS011;39547;45.554;12.068;2023-03-03T04:27:04;23.33;;;11.30;;
53644;SDS011;39547;45.554;12.068;2023-03-03T04:33:07;24.45;;;11.70;;
53644;SDS011;39547;45.554;12.068;2023-03-03T04:39:10;22.10;;;10.30;;
53644;SDS011;39547;45.554;12.068;2023-03-03T04:45:13;21.38;;;10.32;;
53644;SDS011;39547;45.554;12.068;2023-03-03T04:51:14;24.73;;;12.52;;
53644;SDS011;39547;45.554;12.068;2023-03-03T04:57:16;22.30;;;10.27;;
53644;SDS011;39547;45.554;12.068;2023-03-03T05:03:18;21.50;;;10.50;;
53644;SDS011;39547;45.554;12.068;2023-03-03T05:09:20;22.70;;;10.98;;
53644;SDS011;39547;45.554;12.068;2023-03-03T05:15:22;21.70;;;9.73;;
53644;SDS011;39547;45.554;12.068;2023-03-03T05:21:23;21.83;;;11.13;;
53644;SDS011;39547;45.554;12.068;2023-03-03T05:27:25;23.38;;;10.60;;
53644;SDS011;39547;45.554;12.068;2023-03-03T05:33:26;24.33;;;11.50;;
53644;SDS011;39547;45.554;12.068;2023-03-03T05:39:28;20.92;;;9.93;;
53644;SDS011;39547;45.554;12.068;2023-03-03T05:45:29;20.35;;;10.25;;
53644;SDS011;39547;45.554;12.068;2023-03-03T05:51:31;20.75;;;10.05;;
53644;SDS011;39547;45.554;12.068;2023-03-03T05:57:32;22.70;;;10.45;;
53644;SDS011;39547;45.554;12.068;2023-03-03T06:03:35;21.35;;;10.23;;
53644;SDS011;39547;45.554;12.068;2023-03-03T06:09:37;22.75;;;11.07;;
53644;SDS011;39547;45.554;12.068;2023-03-03T06:15:38;23.48;;;11.48;;
53644;SDS011;39547;45.554;12.068;2023-03-03T06:21:40;23.42;;;12.18;;
53644;SDS011;39547;45.554;12.068;2023-03-03T06:27:41;27.00;;;12.35;;
53644;SDS011;39547;45.554;12.068;2023-03-03T06:33:42;22.40;;;11.02;;
53644;SDS011;39547;45.554;12.068;2023-03-03T06:39:44;23.15;;;11.40;;
53644;SDS011;39547;45.554;12.068;2023-03-03T06:45:45;21.45;;;10.57;;
53644;SDS011;39547;45.554;12.068;2023-03-03T06:51:47;21.63;;;10.60;;
53644;SDS011;39547;45.554;12.068;2023-03-03T06:57:48;22.65;;;11.55;;
53644;SDS011;39547;45.554;12.068;2023-03-03T07:03:49;21.88;;;11.70;;
53644;SDS011;39547;45.554;12.068;2023-03-03T07:09:54;21.98;;;11.15;;
53644;SDS011;39547;45.554;12.068;2023-03-03T07:15:58;23.35;;;11.45;;
53644;SDS011;39547;45.554;12.068;2023-03-03T07:34:37;24.55;;;12.68;;
53644;SDS011;39547;45.554;12.068;2023-03-03T07:40:47;23.83;;;12.90;;
53644;SDS011;39547;45.554;12.068;2023-03-03T07:46:54;23.42;;;11.50;;
53644;SDS011;39547;45.554;12.068;2023-03-03T07:52:56;23.15;;;11.25;;
53644;SDS011;39547;45.554;12.068;2023-03-03T07:58:59;22.47;;;10.43;;
53644;SDS011;39547;45.554;12.068;2023-03-03T08:05:37;20.95;;;10.02;;
53644;SDS011;39547;45.554;12.068;2023-03-03T08:11:47;20.17;;;9.52;;
53644;SDS011;39547;45.554;12.068;2023-03-03T08:17:59;21.42;;;9.88;;
53644;SDS011;39547;45.554;12.068;2023-03-03T08:24:01;18.42;;;8.50;;
53644;SDS011;39547;45.554;12.068;2023-03-03T08:30:03;19.75;;;9.30;;
53644;SDS011;39547;45.554;12.068;2023-03-03T08:36:05;17.05;;;7.53;;
53644;SDS011;39547;45.554;12.068;2023-03-03T08:42:07;16.92;;;7.82;;
53644;SDS011;39547;45.554;12.068;2023-03-03T08:48:09;16.48;;;6.93;;
53644;SDS011;39547;45.554;12.068;2023-03-03T08:54:10;16.70;;;7.05;;
53644;SDS011;39547;45.554;12.068;2023-03-03T09:00:13;15.38;;;6.85;;
53644;SDS011;39547;45.554;12.068;2023-03-03T09:06:16;16.45;;;6.20;;
53644;SDS011;39547;45.554;12.068;2023-03-03T09:12:27;15.18;;;5.72;;
53644;SDS011;39547;45.554;12.068;2023-03-03T09:18:42;15.48;;;6.75;;
53644;SDS011;39547;45.554;12.068;2023-03-03T09:24:44;16.02;;;6.30;;
53644;SDS011;39547;45.554;12.068;2023-03-03T09:30:49;15.48;;;6.25;;
53644;SDS011;39547;45.554;12.068;2023-03-03T09:36:51;15.70;;;5.78;;
53644;SDS011;39547;45.554;12.068;2023-03-03T09:43:07;14.48;;;5.45;;
53644;SDS011;39547;45.554;12.068;2023-03-03T10:01:49;14.32;;;5.18;;
53644;SDS011;39547;45.554;12.068;2023-03-03T10:40:11;13.68;;;5.25;;
53644;SDS011;39547;45.554;12.068;2023-03-03T10:46:45;14.35;;;5.22;;
53644;SDS011;39547;45.554;12.068;2023-03-03T11:05:42;14.63;;;5.38;;
53644;SDS011;39547;45.554;12.068;2023-03-03T11:37:39;13.27;;;4.97;;
53644;SDS011;39547;45.554;12.068;2023-03-03T11:43:50;15.68;;;6.00;;
53644;SDS011;39547;45.554;12.068;2023-03-03T11:50:07;14.40;;;5.55;;
53644;SDS011;39547;45.554;12.068;2023-03-03T11:56:40;13.73;;;5.53;;
53644;SDS011;39547;45.554;12.068;2023-03-03T12:09:02;13.82;;;5.20;;
53644;SDS011;39547;45.554;12.068;2023-03-03T12:28:16;14.77;;;5.55;;
53644;SDS011;39547;45.554;12.068;2023-03-03T12:34:52;13.60;;;5.05;;
53644;SDS011;39547;45.554;12.068;2023-03-03T12:41:15;14.55;;;5.13;;
53644;SDS011;39547;45.554;12.068;2023-03-03T12:47:28;13.25;;;4.95;;
53644;SDS011;39547;45.554;12.068;2023-03-03T13:19:01;13.82;;;5.15;;
53644;SDS011;39547;45.554;12.068;2023-03-03T13:25:34;14.25;;;5.32;;
53644;SDS011;39547;45.554;12.068;2023-03-03T13:31:50;13.32;;;4.80;;
53644;SDS011;39547;45.554;12.068;2023-03-03T13:38:17;12.88;;;4.75;;
53644;SDS011;39547;45.554;12.068;2023-03-03T13:44:24;13.47;;;4.97;;
53644;SDS011;39547;45.554;12.068;2023-03-03T13:50:40;14.55;;;6.15;;
53644;SDS011;39547;45.554;12.068;2023-03-03T14:03:06;15.70;;;5.93;;
53644;SDS011;39547;45.554;12.068;2023-03-03T14:09:27;15.55;;;6.13;;
53644;SDS011;39547;45.554;12.068;2023-03-03T14:15:54;13.93;;;5.70;;
53644;SDS011;39547;45.554;12.068;2023-03-03T14:22:09;14.25;;;5.20;;
53644;SDS011;39547;45.554;12.068;2023-03-03T14:28:12;13.77;;;5.45;;
53644;SDS011;39547;45.554;12.068;2023-03-03T14:40:29;14.32;;;5.82;;
53644;SDS011;39547;45.554;12.068;2023-03-03T14:46:34;17.55;;;7.10;;
53644;SDS011;39547;45.554;12.068;2023-03-03T14:52:37;14.85;;;5.93;;
53644;SDS011;39547;45.554;12.068;2023-03-03T14:58:40;15.50;;;5.30;;
53644;SDS011;39547;45.554;12.068;2023-03-03T15:04:46;15.05;;;5.97;;
53644;SDS011;39547;45.554;12.068;2023-03-03T15:10:48;14.98;;;5.32;;
53644;SDS011;39547;45.554;12.068;2023-03-03T15:16:50;14.43;;;5.80;;
53644;SDS011;39547;45.554;12.068;2023-03-03T15:22:56;15.38;;;5.80;;
53644;SDS011;39547;45.554;12.068;2023-03-03T15:41:59;12.90;;;4.45;;
53644;SDS011;39547;45.554;12.068;2023-03-03T15:48:33;14.00;;;4.90;;
53644;SDS011;39547;45.554;12.068;2023-03-03T16:20:28;13.90;;;4.18;;
53644;SDS011;39547;45.554;12.068;2023-03-03T16:39:14;13.25;;;5.00;;
53644;SDS011;39547;45.554;12.068;2023-03-03T17:17:46;17.75;;;8.00;;
53644;SDS011;39547;45.554;12.068;2023-03-03T17:43:22;27.45;;;12.20;;
53644;SDS011;39547;45.554;12.068;2023-03-03T18:21:15;19.85;;;8.45;;
53644;SDS011;39547;45.554;12.068;2023-03-03T18:33:43;16.80;;;7.53;;
53644;SDS011;39547;45.554;12.068;2023-03-03T18:46:05;17.83;;;7.93;;
53644;SDS011;39547;45.554;12.068;2023-03-03T18:52:26;19.00;;;8.15;;
53644;SDS011;39547;45.554;12.068;2023-03-03T18:58:33;19.85;;;8.80;;
53644;SDS011;39547;45.554;12.068;2023-03-03T19:04:53;19.95;;;8.35;;
53644;SDS011;39547;45.554;12.068;2023-03-03T19:10:57;21.60;;;9.00;;
53644;SDS011;39547;45.554;12.068;2023-03-03T19:23:17;18.30;;;8.73;;
53644;SDS011;39547;45.554;12.068;2023-03-03T19:29:24;17.58;;;7.55;;
53644;SDS011;39547;45.554;12.068;2023-03-03T20:25:55;23.95;;;12.07;;
53644;SDS011;39547;45.554;12.068;2023-03-03T20:32:17;25.85;;;13.95;;
53644;SDS011;39547;45.554;12.068;2023-03-03T20:51:11;26.70;;;15.15;;
53644;SDS011;39547;45.554;12.068;2023-03-03T20:57:41;25.35;;;14.23;;
53644;SDS011;39547;45.554;12.068;2023-03-03T21:03:49;24.90;;;13.05;;
53644;SDS011;39547;45.554;12.068;2023-03-03T21:10:08;23.55;;;11.73;;
53644;SDS011;39547;45.554;12.068;2023-03-03T21:22:22;22.27;;;11.00;;
53644;SDS011;39547;45.554;12.068;2023-03-03T21:28:29;24.88;;;11.13;;
53644;SDS011;39547;45.554;12.068;2023-03-03T21:34:36;24.20;;;11.40;;
53644;SDS011;39547;45.554;12.068;2023-03-03T21:40:39;24.02;;;11.30;;
53644;SDS011;39547;45.554;12.068;2023-03-03T21:46:40;23.85;;;11.07;;
53644;SDS011;39547;45.554;12.068;2023-03-03T21:52:42;22.75;;;10.77;;
53644;SDS011;39547;45.554;12.068;2023-03-03T21:58:43;24.40;;;11.13;;
53644;SDS011;39547;45.554;12.068;2023-03-03T22:04:45;25.05;;;12.60;;
53644;SDS011;39547;45.554;12.068;2023-03-03T22:10:46;22.98;;;10.85;;
53644;SDS011;39547;45.554;12.068;2023-03-03T22:22:52;24.23;;;11.80;;
53644;SDS011;39547;45.554;12.068;2023-03-03T22:28:53;23.70;;;12.10;;
53644;SDS011;39547;45.554;12.068;2023-03-03T22:34:55;24.20;;;12.43;;
53644;SDS011;39547;45.554;12.068;2023-03-03T22:40:56;24.13;;;10.75;;
53644;SDS011;39547;45.554;12.068;2023-03-03T22:46:58;24.58;;;12.30;;
53644;SDS011;39547;45.554;12.068;2023-03-03T22:52:59;27.48;;;13.52;;
53644;SDS011;39547;45.554;12.068;2023-03-03T22:59:01;23.33;;;11.45;;
53644;SDS011;39547;45.554;12.068;2023-03-03T23:05:02;27.13;;;13.00;;
53644;SDS011;39547;45.554;12.068;2023-03-03T23:11:08;29.90;;;15.32;;
53644;SDS011;39547;45.554;12.068;2023-03-03T23:17:09;28.20;;;14.02;;
53644;SDS011;39547;45.554;12.068;2023-03-03T23:23:10;28.50;;;14.63;;
53644;SDS011;39547;45.554;12.068;2023-03-03T23:29:12;26.50;;;13.80;;
53644;SDS011;39547;45.554;12.068;2023-03-03T23:35:13;25.77;;;13.27;;
53644;SDS011;39547;45.554;12.068;2023-03-03T23:41:15;26.67;;;13.25;;
53644;SDS011;39547;45.554;12.068;2023-03-03T23:47:16;24.15;;;12.48;;
53644;SDS011;39547;45.554;12.068;2023-03-03T23:53:18;26.45;;;12.93;;
53644;SDS011;39547;45.554;12.068;2023-03-03T23:59:19;26.80;;;13.32;;
